sensor_id;sensor_type;location;lat;lon;timestamp;pressure;altitude;pressure_sealevel;temperature
11424;BMP180;5768;51.476;7.210;2022-08-19T00:04:41;100032.00;;;22.70
11424;BMP180;5768;51.476;7.210;2022-08-19T00:09:43;100034.00;;;22.70
11424;BMP180;5768;51.476;7.210;2022-08-19T00:14:46;100039.00;;;22.60
11424;BMP180;5768;51.476;7.210;2022-08-19T00:19:48;100040.00;;;22.60
11424;BMP180;5768;51.476;7.210;2022-08-19T00:24:51;100033.00;;;22.60
11424;BMP180;5768;51.476;7.210;2022-08-19T00:29:54;100037.00;;;22.50
11424;BMP180;5768;51.476;7.210;2022-08-19T00:34:57;100041.00;;;22.50
11424;BMP180;5768;51.476;7.210;2022-08-19T00:40:00;100038.00;;;22.50
11424;BMP180;5768;51.476;7.210;2022-08-19T00:45:13;100034.00;;;22.40
11424;BMP180;5768;51.476;7.210;2022-08-19T00:50:20;100028.00;;;22.40
11424;BMP180;5768;51.476;7.210;2022-08-19T00:55:26;100037.00;;;22.40
11424;BMP180;5768;51.476;7.210;2022-08-19T01:00:32;100027.00;;;22.30
11424;BMP180;5768;51.476;7.210;2022-08-19T01:05:36;100017.00;;;22.30
11424;BMP180;5768;51.476;7.210;2022-08-19T01:10:44;100012.00;;;22.30
11424;BMP180;5768;51.476;7.210;2022-08-19T01:15:53;100014.00;;;22.20
11424;BMP180;5768;51.476;7.210;2022-08-19T01:21:02;100016.00;;;22.20
11424;BMP180;5768;51.476;7.210;2022-08-19T01:26:10;100023.00;;;22.10
11424;BMP180;5768;51.476;7.210;2022-08-19T01:31:16;100026.00;;;22.10
11424;BMP180;5768;51.476;7.210;2022-08-19T01:36:25;100026.00;;;22.10
11424;BMP180;5768;51.476;7.210;2022-08-19T01:41:29;100024.00;;;22.10
11424;BMP180;5768;51.476;7.210;2022-08-19T01:46:32;100016.00;;;22.00
11424;BMP180;5768;51.476;7.210;2022-08-19T01:51:34;100023.00;;;22.00
11424;BMP180;5768;51.476;7.210;2022-08-19T01:56:39;100017.00;;;22.00
11424;BMP180;5768;51.476;7.210;2022-08-19T02:01:41;100019.00;;;21.90
11424;BMP180;5768;51.476;7.210;2022-08-19T02:06:43;100006.00;;;21.90
11424;BMP180;5768;51.476;7.210;2022-08-19T02:11:47;100002.00;;;21.90
11424;BMP180;5768;51.476;7.210;2022-08-19T02:16:55;99998.00;;;21.90
11424;BMP180;5768;51.476;7.210;2022-08-19T02:21:57;99999.00;;;21.80
11424;BMP180;5768;51.476;7.210;2022-08-19T02:27:01;100005.00;;;21.80
11424;BMP180;5768;51.476;7.210;2022-08-19T02:32:04;100008.00;;;21.80
11424;BMP180;5768;51.476;7.210;2022-08-19T02:37:06;100018.00;;;21.80
11424;BMP180;5768;51.476;7.210;2022-08-19T02:42:30;100005.00;;;21.80
11424;BMP180;5768;51.476;7.210;2022-08-19T02:47:34;100016.00;;;21.70
11424;BMP180;5768;51.476;7.210;2022-08-19T02:52:36;100015.00;;;21.70
11424;BMP180;5768;51.476;7.210;2022-08-19T02:57:40;100012.00;;;21.70
11424;BMP180;5768;51.476;7.210;2022-08-19T03:02:42;100019.00;;;21.70
11424;BMP180;5768;51.476;7.210;2022-08-19T03:07:44;100013.00;;;21.60
11424;BMP180;5768;51.476;7.210;2022-08-19T03:12:49;100018.00;;;21.60
11424;BMP180;5768;51.476;7.210;2022-08-19T03:17:51;100017.00;;;21.60
11424;BMP180;5768;51.476;7.210;2022-08-19T03:22:53;100017.00;;;21.60
11424;BMP180;5768;51.476;7.210;2022-08-19T03:27:56;100017.00;;;21.50
11424;BMP180;5768;51.476;7.210;2022-08-19T03:32:58;100007.00;;;21.50
11424;BMP180;5768;51.476;7.210;2022-08-19T03:38:00;100007.00;;;21.50
11424;BMP180;5768;51.476;7.210;2022-08-19T03:43:04;100008.00;;;21.40
11424;BMP180;5768;51.476;7.210;2022-08-19T03:48:06;99998.00;;;21.40
11424;BMP180;5768;51.476;7.210;2022-08-19T03:53:09;100012.00;;;21.40
11424;BMP180;5768;51.476;7.210;2022-08-19T03:58:12;100011.00;;;21.30
11424;BMP180;5768;51.476;7.210;2022-08-19T04:03:15;100015.00;;;21.30
11424;BMP180;5768;51.476;7.210;2022-08-19T04:08:20;100018.00;;;21.30
11424;BMP180;5768;51.476;7.210;2022-08-19T04:13:24;100021.00;;;21.30
11424;BMP180;5768;51.476;7.210;2022-08-19T04:18:26;100020.00;;;21.30
11424;BMP180;5768;51.476;7.210;2022-08-19T04:23:31;100033.00;;;21.30
11424;BMP180;5768;51.476;7.210;2022-08-19T04:28:34;100031.00;;;21.30
11424;BMP180;5768;51.476;7.210;2022-08-19T04:33:37;100026.00;;;21.50
11424;BMP180;5768;51.476;7.210;2022-08-19T04:38:39;100029.00;;;21.50
11424;BMP180;5768;51.476;7.210;2022-08-19T04:43:45;100048.00;;;21.60
11424;BMP180;5768;51.476;7.210;2022-08-19T04:48:49;100038.00;;;21.80
11424;BMP180;5768;51.476;7.210;2022-08-19T04:53:53;100041.00;;;21.90
11424;BMP180;5768;51.476;7.210;2022-08-19T04:58:57;100048.00;;;22.00
11424;BMP180;5768;51.476;7.210;2022-08-19T05:04:06;100051.00;;;22.00
11424;BMP180;5768;51.476;7.210;2022-08-19T05:09:08;100058.00;;;22.10
11424;BMP180;5768;51.476;7.210;2022-08-19T05:14:12;100065.00;;;22.20
11424;BMP180;5768;51.476;7.210;2022-08-19T05:19:15;100067.00;;;22.30
11424;BMP180;5768;51.476;7.210;2022-08-19T05:24:35;100062.00;;;22.20
11424;BMP180;5768;51.476;7.210;2022-08-19T05:29:39;100060.00;;;22.20
11424;BMP180;5768;51.476;7.210;2022-08-19T05:34:42;100062.00;;;22.20
11424;BMP180;5768;51.476;7.210;2022-08-19T05:39:53;100061.00;;;22.30
11424;BMP180;5768;51.476;7.210;2022-08-19T05:44:58;100064.00;;;22.40
11424;BMP180;5768;51.476;7.210;2022-08-19T05:50:05;100061.00;;;22.60
11424;BMP180;5768;51.476;7.210;2022-08-19T05:55:10;100068.00;;;22.70
11424;BMP180;5768;51.476;7.210;2022-08-19T06:00:15;100065.00;;;22.70
11424;BMP180;5768;51.476;7.210;2022-08-19T06:05:21;100063.00;;;22.70
11424;BMP180;5768;51.476;7.210;2022-08-19T06:10:24;100061.00;;;22.70
11424;BMP180;5768;51.476;7.210;2022-08-19T06:15:28;100058.00;;;22.70
11424;BMP180;5768;51.476;7.210;2022-08-19T06:20:31;100060.00;;;22.70
11424;BMP180;5768;51.476;7.210;2022-08-19T06:25:35;100060.00;;;22.80
11424;BMP180;5768;51.476;7.210;2022-08-19T06:30:40;100075.00;;;22.90
11424;BMP180;5768;51.476;7.210;2022-08-19T06:35:42;100069.00;;;23.10
11424;BMP180;5768;51.476;7.210;2022-08-19T06:40:44;100061.00;;;23.10
11424;BMP180;5768;51.476;7.210;2022-08-19T06:45:48;100062.00;;;23.10
11424;BMP180;5768;51.476;7.210;2022-08-19T06:50:52;100067.00;;;23.30
11424;BMP180;5768;51.476;7.210;2022-08-19T06:55:55;100062.00;;;23.30
11424;BMP180;5768;51.476;7.210;2022-08-19T07:01:03;100066.00;;;23.40
11424;BMP180;5768;51.476;7.210;2022-08-19T07:06:10;100067.00;;;23.40
11424;BMP180;5768;51.476;7.210;2022-08-19T07:11:17;100061.00;;;23.40
11424;BMP180;5768;51.476;7.210;2022-08-19T07:16:21;100087.00;;;23.40
11424;BMP180;5768;51.476;7.210;2022-08-19T07:21:26;100082.00;;;23.60
11424;BMP180;5768;51.476;7.210;2022-08-19T07:26:33;100085.00;;;23.60
11424;BMP180;5768;51.476;7.210;2022-08-19T07:31:41;100100.00;;;23.80
11424;BMP180;5768;51.476;7.210;2022-08-19T07:36:44;100101.00;;;23.90
11424;BMP180;5768;51.476;7.210;2022-08-19T07:41:47;100100.00;;;24.00
11424;BMP180;5768;51.476;7.210;2022-08-19T07:46:55;100110.00;;;24.20
11424;BMP180;5768;51.476;7.210;2022-08-19T07:52:01;100114.00;;;24.30
11424;BMP180;5768;51.476;7.210;2022-08-19T07:57:06;100113.00;;;24.50
11424;BMP180;5768;51.476;7.210;2022-08-19T08:02:10;100122.00;;;24.50
11424;BMP180;5768;51.476;7.210;2022-08-19T08:07:14;100128.00;;;24.70
11424;BMP180;5768;51.476;7.210;2022-08-19T08:12:39;100136.00;;;25.00
11424;BMP180;5768;51.476;7.210;2022-08-19T08:17:45;100138.00;;;25.20
11424;BMP180;5768;51.476;7.210;2022-08-19T08:22:53;100149.00;;;25.30
11424;BMP180;5768;51.476;7.210;2022-08-19T08:28:13;100161.00;;;25.60
11424;BMP180;5768;51.476;7.210;2022-08-19T08:33:23;100153.00;;;25.90
11424;BMP180;5768;51.476;7.210;2022-08-19T08:38:25;100155.00;;;26.10
11424;BMP180;5768;51.476;7.210;2022-08-19T08:43:34;100154.00;;;26.00
11424;BMP180;5768;51.476;7.210;2022-08-19T08:48:44;100162.00;;;26.20
11424;BMP180;5768;51.476;7.210;2022-08-19T08:53:51;100157.00;;;26.30
11424;BMP180;5768;51.476;7.210;2022-08-19T08:58:59;100152.00;;;26.40
11424;BMP180;5768;51.476;7.210;2022-08-19T09:04:05;100151.00;;;26.60
11424;BMP180;5768;51.476;7.210;2022-08-19T09:09:16;100147.00;;;26.80
11424;BMP180;5768;51.476;7.210;2022-08-19T09:14:34;100150.00;;;27.20
11424;BMP180;5768;51.476;7.210;2022-08-19T09:19:51;100150.00;;;27.40
11424;BMP180;5768;51.476;7.210;2022-08-19T09:24:55;100144.00;;;27.40
11424;BMP180;5768;51.476;7.210;2022-08-19T09:29:58;100147.00;;;27.40
11424;BMP180;5768;51.476;7.210;2022-08-19T09:35:02;100147.00;;;27.80
11424;BMP180;5768;51.476;7.210;2022-08-19T09:40:06;100145.00;;;27.90
11424;BMP180;5768;51.476;7.210;2022-08-19T09:45:10;100145.00;;;27.70
11424;BMP180;5768;51.476;7.210;2022-08-19T09:50:14;100148.00;;;27.70
11424;BMP180;5768;51.476;7.210;2022-08-19T09:55:16;100147.00;;;27.60
11424;BMP180;5768;51.476;7.210;2022-08-19T10:00:19;100145.00;;;27.40
11424;BMP180;5768;51.476;7.210;2022-08-19T10:05:23;100146.00;;;27.40
11424;BMP180;5768;51.476;7.210;2022-08-19T10:10:44;100150.00;;;27.80
11424;BMP180;5768;51.476;7.210;2022-08-19T10:15:50;100145.00;;;28.10
11424;BMP180;5768;51.476;7.210;2022-08-19T10:21:06;100147.00;;;28.40
11424;BMP180;5768;51.476;7.210;2022-08-19T10:26:15;100129.00;;;28.40
11424;BMP180;5768;51.476;7.210;2022-08-19T10:31:20;100148.00;;;28.30
11424;BMP180;5768;51.476;7.210;2022-08-19T10:36:29;100138.00;;;28.00
11424;BMP180;5768;51.476;7.210;2022-08-19T10:41:35;100132.00;;;28.10
11424;BMP180;5768;51.476;7.210;2022-08-19T10:46:41;100136.00;;;28.60
11424;BMP180;5768;51.476;7.210;2022-08-19T10:51:45;100130.00;;;29.20
11424;BMP180;5768;51.476;7.210;2022-08-19T10:57:05;100135.00;;;29.30
11424;BMP180;5768;51.476;7.210;2022-08-19T11:02:10;100132.00;;;28.70
11424;BMP180;5768;51.476;7.210;2022-08-19T11:07:14;100133.00;;;28.60
11424;BMP180;5768;51.476;7.210;2022-08-19T11:12:16;100133.00;;;28.60
11424;BMP180;5768;51.476;7.210;2022-08-19T11:17:20;100134.00;;;28.50
11424;BMP180;5768;51.476;7.210;2022-08-19T11:22:25;100135.00;;;28.60
11424;BMP180;5768;51.476;7.210;2022-08-19T11:27:28;100133.00;;;28.40
11424;BMP180;5768;51.476;7.210;2022-08-19T11:32:31;100123.00;;;28.50
11424;BMP180;5768;51.476;7.210;2022-08-19T11:37:35;100125.00;;;28.80
11424;BMP180;5768;51.476;7.210;2022-08-19T11:42:39;100125.00;;;29.10
11424;BMP180;5768;51.476;7.210;2022-08-19T11:47:57;100125.00;;;28.90
11424;BMP180;5768;51.476;7.210;2022-08-19T11:53:01;100115.00;;;28.70
11424;BMP180;5768;51.476;7.210;2022-08-19T11:58:03;100117.00;;;29.00
11424;BMP180;5768;51.476;7.210;2022-08-19T12:03:07;100112.00;;;29.60
11424;BMP180;5768;51.476;7.210;2022-08-19T12:08:12;100119.00;;;29.60
11424;BMP180;5768;51.476;7.210;2022-08-19T12:13:16;100111.00;;;29.90
11424;BMP180;5768;51.476;7.210;2022-08-19T12:18:19;100113.00;;;30.10
11424;BMP180;5768;51.476;7.210;2022-08-19T12:23:31;100114.00;;;29.80
11424;BMP180;5768;51.476;7.210;2022-08-19T12:28:35;100103.00;;;30.40
11424;BMP180;5768;51.476;7.210;2022-08-19T12:33:38;100114.00;;;31.10
11424;BMP180;5768;51.476;7.210;2022-08-19T12:38:43;100109.00;;;30.50
11424;BMP180;5768;51.476;7.210;2022-08-19T12:43:47;100101.00;;;30.50
11424;BMP180;5768;51.476;7.210;2022-08-19T12:48:50;100105.00;;;32.10
11424;BMP180;5768;51.476;7.210;2022-08-19T12:53:56;100102.00;;;33.00
11424;BMP180;5768;51.476;7.210;2022-08-19T12:59:05;100100.00;;;34.00
11424;BMP180;5768;51.476;7.210;2022-08-19T13:04:09;100091.00;;;34.00
11424;BMP180;5768;51.476;7.210;2022-08-19T13:09:13;100092.00;;;35.00
11424;BMP180;5768;51.476;7.210;2022-08-19T13:14:15;100092.00;;;36.20
11424;BMP180;5768;51.476;7.210;2022-08-19T13:19:20;100084.00;;;36.20
11424;BMP180;5768;51.476;7.210;2022-08-19T13:24:26;100069.00;;;36.40
11424;BMP180;5768;51.476;7.210;2022-08-19T13:29:28;100070.00;;;35.10
11424;BMP180;5768;51.476;7.210;2022-08-19T13:34:49;100061.00;;;36.80
11424;BMP180;5768;51.476;7.210;2022-08-19T13:39:52;100056.00;;;35.80
11424;BMP180;5768;51.476;7.210;2022-08-19T13:44:55;100061.00;;;35.00
11424;BMP180;5768;51.476;7.210;2022-08-19T13:50:02;100062.00;;;34.10
11424;BMP180;5768;51.476;7.210;2022-08-19T13:55:10;100053.00;;;34.00
11424;BMP180;5768;51.476;7.210;2022-08-19T14:00:16;100051.00;;;36.70
11424;BMP180;5768;51.476;7.210;2022-08-19T14:05:23;100054.00;;;39.00
11424;BMP180;5768;51.476;7.210;2022-08-19T14:10:31;100044.00;;;40.20
11424;BMP180;5768;51.476;7.210;2022-08-19T14:15:34;100045.00;;;39.30
11424;BMP180;5768;51.476;7.210;2022-08-19T14:20:38;100048.00;;;36.70
11424;BMP180;5768;51.476;7.210;2022-08-19T14:25:45;100049.00;;;37.60
11424;BMP180;5768;51.476;7.210;2022-08-19T14:30:47;100058.00;;;40.20
11424;BMP180;5768;51.476;7.210;2022-08-19T14:35:50;100058.00;;;41.10
11424;BMP180;5768;51.476;7.210;2022-08-19T14:40:54;100062.00;;;42.00
11424;BMP180;5768;51.476;7.210;2022-08-19T14:45:58;100064.00;;;42.80
11424;BMP180;5768;51.476;7.210;2022-08-19T14:51:01;100065.00;;;44.00
11424;BMP180;5768;51.476;7.210;2022-08-19T14:56:10;100070.00;;;44.60
11424;BMP180;5768;51.476;7.210;2022-08-19T15:01:13;100077.00;;;45.00
11424;BMP180;5768;51.476;7.210;2022-08-19T15:06:16;100092.00;;;42.90
11424;BMP180;5768;51.476;7.210;2022-08-19T15:11:25;100082.00;;;40.00
11424;BMP180;5768;51.476;7.210;2022-08-19T15:16:32;100080.00;;;42.70
11424;BMP180;5768;51.476;7.210;2022-08-19T15:21:35;100090.00;;;43.80
11424;BMP180;5768;51.476;7.210;2022-08-19T15:26:39;100087.00;;;40.50
11424;BMP180;5768;51.476;7.210;2022-08-19T15:31:46;100079.00;;;38.50
11424;BMP180;5768;51.476;7.210;2022-08-19T15:36:49;100098.00;;;37.10
11424;BMP180;5768;51.476;7.210;2022-08-19T15:41:53;100108.00;;;39.70
11424;BMP180;5768;51.476;7.210;2022-08-19T15:46:56;100103.00;;;41.60
11424;BMP180;5768;51.476;7.210;2022-08-19T15:51:58;100110.00;;;43.30
11424;BMP180;5768;51.476;7.210;2022-08-19T15:57:03;100113.00;;;41.20
11424;BMP180;5768;51.476;7.210;2022-08-19T16:02:25;100108.00;;;37.70
11424;BMP180;5768;51.476;7.210;2022-08-19T16:07:46;100098.00;;;35.90
11424;BMP180;5768;51.476;7.210;2022-08-19T16:12:50;100104.00;;;35.90
11424;BMP180;5768;51.476;7.210;2022-08-19T16:17:53;100100.00;;;39.50
11424;BMP180;5768;51.476;7.210;2022-08-19T16:22:57;100101.00;;;42.30
11424;BMP180;5768;51.476;7.210;2022-08-19T16:28:01;100124.00;;;42.30
11424;BMP180;5768;51.476;7.210;2022-08-19T16:33:04;100120.00;;;40.90
11424;BMP180;5768;51.476;7.210;2022-08-19T16:38:07;100125.00;;;38.40
11424;BMP180;5768;51.476;7.210;2022-08-19T16:43:11;100127.00;;;36.70
11424;BMP180;5768;51.476;7.210;2022-08-19T16:48:13;100126.00;;;37.00
11424;BMP180;5768;51.476;7.210;2022-08-19T16:53:18;100126.00;;;39.50
11424;BMP180;5768;51.476;7.210;2022-08-19T16:58:24;100117.00;;;39.10
11424;BMP180;5768;51.476;7.210;2022-08-19T17:03:28;100115.00;;;36.60
11424;BMP180;5768;51.476;7.210;2022-08-19T17:08:31;100113.00;;;35.00
11424;BMP180;5768;51.476;7.210;2022-08-19T17:13:36;100112.00;;;33.70
11424;BMP180;5768;51.476;7.210;2022-08-19T17:18:45;100114.00;;;33.10
11424;BMP180;5768;51.476;7.210;2022-08-19T17:23:53;100121.00;;;32.50
11424;BMP180;5768;51.476;7.210;2022-08-19T17:28:58;100105.00;;;32.10
11424;BMP180;5768;51.476;7.210;2022-08-19T17:34:02;100104.00;;;31.80
11424;BMP180;5768;51.476;7.210;2022-08-19T17:39:07;100103.00;;;31.50
11424;BMP180;5768;51.476;7.210;2022-08-19T17:44:14;100099.00;;;31.30
11424;BMP180;5768;51.476;7.210;2022-08-19T17:49:17;100094.00;;;30.90
11424;BMP180;5768;51.476;7.210;2022-08-19T17:54:19;100101.00;;;30.90
11424;BMP180;5768;51.476;7.210;2022-08-19T17:59:23;100089.00;;;30.80
11424;BMP180;5768;51.476;7.210;2022-08-19T18:04:26;100091.00;;;30.60
11424;BMP180;5768;51.476;7.210;2022-08-19T18:09:39;100088.00;;;30.30
11424;BMP180;5768;51.476;7.210;2022-08-19T18:14:43;100088.00;;;30.00
11424;BMP180;5768;51.476;7.210;2022-08-19T18:19:46;100094.00;;;29.70
11424;BMP180;5768;51.476;7.210;2022-08-19T18:24:48;100111.00;;;29.30
11424;BMP180;5768;51.476;7.210;2022-08-19T18:29:52;100103.00;;;28.90
11424;BMP180;5768;51.476;7.210;2022-08-19T18:35:00;100100.00;;;28.50
11424;BMP180;5768;51.476;7.210;2022-08-19T18:40:03;100103.00;;;28.20
11424;BMP180;5768;51.476;7.210;2022-08-19T18:45:24;100110.00;;;27.80
11424;BMP180;5768;51.476;7.210;2022-08-19T18:50:57;100117.00;;;27.60
11424;BMP180;5768;51.476;7.210;2022-08-19T18:56:00;100115.00;;;27.40
11424;BMP180;5768;51.476;7.210;2022-08-19T19:01:09;100114.00;;;27.20
11424;BMP180;5768;51.476;7.210;2022-08-19T19:06:15;100112.00;;;27.10
11424;BMP180;5768;51.476;7.210;2022-08-19T19:11:23;100125.00;;;26.90
11424;BMP180;5768;51.476;7.210;2022-08-19T19:16:27;100142.00;;;26.80
11424;BMP180;5768;51.476;7.210;2022-08-19T19:21:29;100126.00;;;26.70
11424;BMP180;5768;51.476;7.210;2022-08-19T19:26:31;100135.00;;;26.50
11424;BMP180;5768;51.476;7.210;2022-08-19T19:31:35;100139.00;;;26.40
11424;BMP180;5768;51.476;7.210;2022-08-19T19:36:38;100144.00;;;26.30
11424;BMP180;5768;51.476;7.210;2022-08-19T19:41:40;100147.00;;;26.20
11424;BMP180;5768;51.476;7.210;2022-08-19T19:46:43;100156.00;;;26.10
11424;BMP180;5768;51.476;7.210;2022-08-19T19:51:46;100150.00;;;26.00
11424;BMP180;5768;51.476;7.210;2022-08-19T19:56:49;100154.00;;;25.80
11424;BMP180;5768;51.476;7.210;2022-08-19T20:01:52;100161.00;;;25.70
11424;BMP180;5768;51.476;7.210;2022-08-19T20:06:54;100170.00;;;25.60
11424;BMP180;5768;51.476;7.210;2022-08-19T20:11:57;100186.00;;;25.50
11424;BMP180;5768;51.476;7.210;2022-08-19T20:17:01;100196.00;;;25.50
11424;BMP180;5768;51.476;7.210;2022-08-19T20:22:05;100186.00;;;25.40
11424;BMP180;5768;51.476;7.210;2022-08-19T20:27:07;100196.00;;;25.40
11424;BMP180;5768;51.476;7.210;2022-08-19T20:32:11;100198.00;;;25.30
11424;BMP180;5768;51.476;7.210;2022-08-19T20:37:13;100207.00;;;25.30
11424;BMP180;5768;51.476;7.210;2022-08-19T20:42:16;100204.00;;;25.40
11424;BMP180;5768;51.476;7.210;2022-08-19T20:47:19;100200.00;;;25.40
11424;BMP180;5768;51.476;7.210;2022-08-19T20:52:21;100209.00;;;25.30
11424;BMP180;5768;51.476;7.210;2022-08-19T20:57:23;100200.00;;;25.20
11424;BMP180;5768;51.476;7.210;2022-08-19T21:02:27;100206.00;;;25.20
11424;BMP180;5768;51.476;7.210;2022-08-19T21:07:29;100207.00;;;25.20
11424;BMP180;5768;51.476;7.210;2022-08-19T21:12:31;100210.00;;;25.10
11424;BMP180;5768;51.476;7.210;2022-08-19T21:17:35;100209.00;;;25.00
11424;BMP180;5768;51.476;7.210;2022-08-19T21:22:37;100211.00;;;25.00
11424;BMP180;5768;51.476;7.210;2022-08-19T21:27:39;100217.00;;;25.10
11424;BMP180;5768;51.476;7.210;2022-08-19T21:32:46;100216.00;;;25.20
11424;BMP180;5768;51.476;7.210;2022-08-19T21:37:48;100225.00;;;25.30
11424;BMP180;5768;51.476;7.210;2022-08-19T21:42:51;100217.00;;;25.40
11424;BMP180;5768;51.476;7.210;2022-08-19T21:47:55;100222.00;;;25.40
11424;BMP180;5768;51.476;7.210;2022-08-19T21:52:57;100217.00;;;25.40
11424;BMP180;5768;51.476;7.210;2022-08-19T21:58:00;100214.00;;;25.40
11424;BMP180;5768;51.476;7.210;2022-08-19T22:03:04;100222.00;;;25.40
11424;BMP180;5768;51.476;7.210;2022-08-19T22:08:07;100212.00;;;25.40
11424;BMP180;5768;51.476;7.210;2022-08-19T22:13:09;100217.00;;;25.40
11424;BMP180;5768;51.476;7.210;2022-08-19T22:18:16;100210.00;;;25.30
11424;BMP180;5768;51.476;7.210;2022-08-19T22:23:19;100201.00;;;25.20
11424;BMP180;5768;51.476;7.210;2022-08-19T22:28:21;100206.00;;;25.20
11424;BMP180;5768;51.476;7.210;2022-08-19T22:33:25;100212.00;;;25.20
11424;BMP180;5768;51.476;7.210;2022-08-19T22:38:29;100220.00;;;25.20
11424;BMP180;5768;51.476;7.210;2022-08-19T22:43:32;100225.00;;;25.10
11424;BMP180;5768;51.476;7.210;2022-08-19T22:48:35;100221.00;;;25.00
11424;BMP180;5768;51.476;7.210;2022-08-19T22:53:41;100232.00;;;24.90
11424;BMP180;5768;51.476;7.210;2022-08-19T22:58:45;100233.00;;;24.70
11424;BMP180;5768;51.476;7.210;2022-08-19T23:03:51;100226.00;;;24.70
11424;BMP180;5768;51.476;7.210;2022-08-19T23:08:55;100227.00;;;24.60
11424;BMP180;5768;51.476;7.210;2022-08-19T23:13:58;100217.00;;;24.40
11424;BMP180;5768;51.476;7.210;2022-08-19T23:19:02;100220.00;;;24.40
11424;BMP180;5768;51.476;7.210;2022-08-19T23:24:05;100229.00;;;24.30
11424;BMP180;5768;51.476;7.210;2022-08-19T23:29:07;100231.00;;;24.20
11424;BMP180;5768;51.476;7.210;2022-08-19T23:34:28;100219.00;;;24.20
11424;BMP180;5768;51.476;7.210;2022-08-19T23:39:30;100216.00;;;24.30
11424;BMP180;5768;51.476;7.210;2022-08-19T23:44:32;100220.00;;;24.40
11424;BMP180;5768;51.476;7.210;2022-08-19T23:49:36;100218.00;;;24.50
11424;BMP180;5768;51.476;7.210;2022-08-19T23:54:38;100208.00;;;24.50
11424;BMP180;5768;51.476;7.210;2022-08-19T23:59:42;100210.00;;;24.30
